createdAt,value
2017-07-02T00:00:31.133Z,15.62
2017-07-02T00:02:58.546Z,15.68
2017-07-02T00:05:25.942Z,15.57
2017-07-02T00:07:53.355Z,15.50
2017-07-02T00:10:20.748Z,15.52
2017-07-02T00:12:48.169Z,15.54
2017-07-02T00:15:15.567Z,15.44
2017-07-02T00:17:42.972Z,15.50
2017-07-02T00:20:10.375Z,15.47
2017-07-02T00:22:37.771Z,15.43
2017-07-02T00:25:05.176Z,15.48
2017-07-02T00:27:32.596Z,15.50
2017-07-02T00:29:59.995Z,15.55
2017-07-02T00:32:27.403Z,15.50
2017-07-02T00:34:54.803Z,15.58
2017-07-02T00:37:22.207Z,15.52
2017-07-02T00:39:49.617Z,15.39
2017-07-02T00:42:17.022Z,15.44
2017-07-02T00:44:44.431Z,15.47
2017-07-02T00:47:11.827Z,15.53
2017-07-02T00:49:39.240Z,15.55
2017-07-02T00:52:06.637Z,15.59
2017-07-02T00:54:34.082Z,15.67
2017-07-02T00:57:01.438Z,15.72
2017-07-02T00:59:28.847Z,15.79
2017-07-02T01:01:56.486Z,15.84
2017-07-02T01:04:23.890Z,15.85
2017-07-02T01:06:51.294Z,15.83
2017-07-02T01:09:18.695Z,15.85
2017-07-02T01:11:46.091Z,15.77
2017-07-02T01:14:13.495Z,15.77
2017-07-02T01:16:40.904Z,15.79
2017-07-02T01:19:08.299Z,15.68
2017-07-02T01:21:35.699Z,15.68
2017-07-02T01:24:03.103Z,15.73
2017-07-02T01:26:30.507Z,15.81
2017-07-02T01:28:57.907Z,15.80
2017-07-02T01:31:25.300Z,15.86
2017-07-02T01:33:52.707Z,15.80
2017-07-02T01:36:20.109Z,15.85
2017-07-02T01:38:47.520Z,16.11
2017-07-02T01:41:14.944Z,16.23
2017-07-02T01:43:42.338Z,16.29
2017-07-02T01:46:09.743Z,16.43
2017-07-02T01:48:37.375Z,16.44
2017-07-02T01:51:04.769Z,16.53
2017-07-02T01:53:32.167Z,16.69
2017-07-02T01:55:59.586Z,16.72
2017-07-02T01:58:26.979Z,16.74
2017-07-02T02:01:06.209Z,16.80
2017-07-02T02:03:33.607Z,16.92
2017-07-02T02:06:01.014Z,16.96
2017-07-02T02:08:28.403Z,16.98
2017-07-02T02:10:55.804Z,16.96
2017-07-02T02:13:23.204Z,17.03
2017-07-02T02:15:50.598Z,16.97
2017-07-02T02:18:17.990Z,17.19
2017-07-02T02:20:45.394Z,17.23
2017-07-02T02:23:12.790Z,17.27
2017-07-02T02:25:40.187Z,17.29
2017-07-02T02:28:07.638Z,17.18
2017-07-02T02:30:35.056Z,17.12
2017-07-02T02:33:02.455Z,17.10
2017-07-02T02:35:29.872Z,17.16
2017-07-02T02:37:57.278Z,17.06
2017-07-02T02:40:24.687Z,17.17
2017-07-02T02:42:52.097Z,16.94
2017-07-02T02:45:19.498Z,17.06
2017-07-02T02:47:46.911Z,16.88
2017-07-02T02:50:14.309Z,16.76
2017-07-02T02:52:41.705Z,16.76
2017-07-02T02:55:09.109Z,16.91
2017-07-02T02:57:36.499Z,16.86
2017-07-02T03:00:03.902Z,16.77
2017-07-02T03:02:31.298Z,16.82
2017-07-02T03:04:58.717Z,16.75
2017-07-02T03:07:26.115Z,16.79
2017-07-02T03:09:53.506Z,16.62
2017-07-02T03:12:20.911Z,16.52
2017-07-02T03:14:48.346Z,16.46
2017-07-02T03:17:15.765Z,16.58
2017-07-02T03:19:43.156Z,16.43
2017-07-02T03:22:10.562Z,16.52
2017-07-02T03:24:37.956Z,16.38
2017-07-02T03:27:05.355Z,16.44
2017-07-02T03:29:32.746Z,16.61
2017-07-02T03:32:00.150Z,16.62
2017-07-02T03:34:27.551Z,16.57
2017-07-02T03:36:54.956Z,16.43
2017-07-02T03:39:22.368Z,16.48
2017-07-02T03:41:49.766Z,16.55
2017-07-02T03:44:17.162Z,16.48
2017-07-02T03:46:44.564Z,16.56
2017-07-02T03:49:11.970Z,16.63
2017-07-02T03:51:39.380Z,16.63
2017-07-02T03:54:06.792Z,16.73
2017-07-02T03:56:34.195Z,16.62
2017-07-02T03:59:01.595Z,16.51
2017-07-02T04:01:29.006Z,16.31
2017-07-02T04:03:56.402Z,16.37
2017-07-02T04:06:24.066Z,16.35
2017-07-02T04:08:51.463Z,16.17
2017-07-02T04:11:18.871Z,16.20
2017-07-02T04:13:46.268Z,16.09
2017-07-02T04:16:13.679Z,16.08
2017-07-02T04:18:41.079Z,16.05
2017-07-02T04:21:08.471Z,16.02
2017-07-02T04:23:35.877Z,16.08
2017-07-02T04:26:03.271Z,15.97
2017-07-02T04:28:30.674Z,15.89
2017-07-02T04:30:58.083Z,15.77
2017-07-02T04:33:25.491Z,15.86
2017-07-02T04:35:52.883Z,16.05
2017-07-02T04:38:20.291Z,16.08
2017-07-02T04:40:47.846Z,16.11
2017-07-02T04:43:15.247Z,16.11
2017-07-02T04:45:42.652Z,16.37
2017-07-02T04:48:10.062Z,16.36
2017-07-02T04:50:37.457Z,16.43
2017-07-02T04:53:04.859Z,16.39
2017-07-02T04:55:32.263Z,16.32
2017-07-02T04:57:59.667Z,16.47
2017-07-02T05:00:27.127Z,16.40
2017-07-02T05:02:54.519Z,16.36
2017-07-02T05:05:21.923Z,16.29
2017-07-02T05:07:49.331Z,16.23
2017-07-02T05:10:16.736Z,16.21
2017-07-02T05:12:44.143Z,16.26
2017-07-02T05:15:11.542Z,16.28
2017-07-02T05:17:38.959Z,16.27
2017-07-02T05:20:06.352Z,16.41
2017-07-02T05:22:33.760Z,16.57
2017-07-02T05:25:01.162Z,16.60
2017-07-02T05:27:28.567Z,16.59
2017-07-02T05:29:55.971Z,16.62
2017-07-02T05:32:23.360Z,16.66
2017-07-02T05:34:50.759Z,16.66
2017-07-02T05:37:18.163Z,16.70
2017-07-02T05:39:45.562Z,16.74
2017-07-02T05:42:12.955Z,16.71
2017-07-02T05:44:40.354Z,16.72
2017-07-02T05:47:07.771Z,16.80
2017-07-02T05:49:35.207Z,16.77
2017-07-02T05:52:02.594Z,16.72
2017-07-02T05:54:29.998Z,16.70
2017-07-02T05:56:57.386Z,16.83
2017-07-02T05:59:24.787Z,16.83
2017-07-02T06:01:52.188Z,16.76
2017-07-02T06:04:19.595Z,16.83
2017-07-02T06:06:46.992Z,16.87
2017-07-02T06:09:14.395Z,17.05
2017-07-02T06:11:41.788Z,17.12
2017-07-02T06:14:09.188Z,17.28
2017-07-02T06:16:36.633Z,17.37
2017-07-02T06:19:04.034Z,17.25
2017-07-02T06:21:31.434Z,17.27
2017-07-02T06:23:58.846Z,17.41
2017-07-02T06:26:26.233Z,17.34
2017-07-02T06:28:53.635Z,17.44
2017-07-02T06:31:21.040Z,17.59
2017-07-02T06:33:48.431Z,17.60
2017-07-02T06:36:15.834Z,17.77
2017-07-02T06:38:44.099Z,17.78
2017-07-02T06:41:11.612Z,17.72
2017-07-02T06:43:39.021Z,17.89
2017-07-02T06:46:06.420Z,17.98
2017-07-02T06:48:34.059Z,18.03
2017-07-02T06:51:01.480Z,18.02
2017-07-02T06:53:28.965Z,17.97
2017-07-02T06:55:56.406Z,17.90
2017-07-02T06:58:23.805Z,18.03
2017-07-02T07:00:51.207Z,18.19
2017-07-02T07:03:18.598Z,18.22
2017-07-02T07:05:45.999Z,18.17
2017-07-02T07:08:13.394Z,18.24
2017-07-02T07:10:40.798Z,18.08
2017-07-02T07:13:08.199Z,18.14
2017-07-02T07:15:35.639Z,18.30
2017-07-02T07:18:03.027Z,18.44
2017-07-02T07:20:30.434Z,18.45
2017-07-02T07:22:57.826Z,18.53
2017-07-02T07:25:25.318Z,18.51
2017-07-02T07:27:52.684Z,18.56
2017-07-02T07:30:20.117Z,18.58
2017-07-02T07:32:47.522Z,18.49
2017-07-02T07:35:14.931Z,18.61
2017-07-02T07:37:42.370Z,18.57
2017-07-02T07:40:09.782Z,18.60
2017-07-02T07:42:37.216Z,18.57
2017-07-02T07:45:04.619Z,18.56
2017-07-02T07:47:32.011Z,18.62
2017-07-02T07:49:59.412Z,18.75
2017-07-02T07:52:26.852Z,18.85
2017-07-02T07:54:54.251Z,18.81
2017-07-02T07:57:21.704Z,18.85
2017-07-02T07:59:49.140Z,18.78
2017-07-02T08:02:16.777Z,18.77
2017-07-02T08:04:44.164Z,18.68
2017-07-02T08:07:11.571Z,18.73
2017-07-02T08:09:41.141Z,18.83
2017-07-02T08:12:09.376Z,18.79
2017-07-02T08:14:37.159Z,18.81
2017-07-02T08:17:04.558Z,18.80
2017-07-02T08:19:31.974Z,18.82
2017-07-02T08:21:59.365Z,18.68
2017-07-02T08:24:26.799Z,18.76
2017-07-02T08:26:54.223Z,18.85
2017-07-02T08:29:21.619Z,18.87
2017-07-02T08:31:49.039Z,18.89
2017-07-02T08:34:16.458Z,18.82
2017-07-02T08:36:43.911Z,18.68
2017-07-02T08:39:11.303Z,18.72
2017-07-02T08:41:38.706Z,18.66
2017-07-02T08:44:06.121Z,18.62
2017-07-02T08:46:33.511Z,18.55
2017-07-02T08:49:00.907Z,18.69
2017-07-02T08:51:28.341Z,18.74
2017-07-02T08:53:55.770Z,18.72
2017-07-02T08:56:23.175Z,18.74
2017-07-02T08:58:51.833Z,18.78
2017-07-02T09:01:19.234Z,18.79
2017-07-02T09:03:46.624Z,18.84
2017-07-02T09:06:14.035Z,18.96
2017-07-02T09:08:41.431Z,18.92
2017-07-02T09:11:08.856Z,18.90
2017-07-02T09:13:36.254Z,18.94
2017-07-02T09:16:03.662Z,18.98
2017-07-02T09:18:31.078Z,18.94
2017-07-02T09:20:58.475Z,18.88
2017-07-02T09:23:25.887Z,18.88
2017-07-02T09:25:53.291Z,18.70
2017-07-02T09:28:20.707Z,18.63
2017-07-02T09:30:48.107Z,18.64
2017-07-02T09:33:15.518Z,18.80
2017-07-02T09:35:42.911Z,18.84
2017-07-02T09:38:10.328Z,18.73
2017-07-02T09:40:37.971Z,18.71
2017-07-02T09:43:05.395Z,18.66
2017-07-02T09:45:32.799Z,18.57
2017-07-02T09:48:00.198Z,18.59
2017-07-02T09:50:27.868Z,18.65
2017-07-02T09:52:55.272Z,18.65
2017-07-02T09:55:22.667Z,18.59
2017-07-02T09:57:50.067Z,18.70
2017-07-02T10:00:17.468Z,18.65
2017-07-02T10:02:44.875Z,18.73
2017-07-02T10:05:12.290Z,18.77
2017-07-02T10:07:39.718Z,18.58
2017-07-02T10:10:07.112Z,18.63
2017-07-02T10:12:34.510Z,18.50
2017-07-02T10:15:01.907Z,18.49
2017-07-02T10:17:29.334Z,18.54
2017-07-02T10:19:56.736Z,18.58
2017-07-02T10:22:24.138Z,18.66
2017-07-02T10:24:51.551Z,18.71
2017-07-02T10:27:18.971Z,18.59
2017-07-02T10:29:46.374Z,18.56
2017-07-02T10:32:13.780Z,18.65
2017-07-02T10:34:41.195Z,18.68
2017-07-02T10:37:08.687Z,18.46
2017-07-02T10:39:36.078Z,18.42
2017-07-02T10:42:03.475Z,18.41
2017-07-02T10:44:30.878Z,18.29
2017-07-02T10:46:58.283Z,18.22
2017-07-02T10:49:25.692Z,18.37
2017-07-02T10:51:53.095Z,18.45
2017-07-02T10:54:20.500Z,18.37
2017-07-02T10:56:47.898Z,18.22
2017-07-02T10:59:15.303Z,18.33
2017-07-02T11:01:42.707Z,18.44
2017-07-02T11:04:10.366Z,18.21
2017-07-02T11:06:37.766Z,18.07
2017-07-02T11:09:05.171Z,18.00
2017-07-02T11:11:32.619Z,17.67
2017-07-02T11:14:00.016Z,17.39
2017-07-02T11:16:27.427Z,17.22
2017-07-02T11:18:54.820Z,17.19
2017-07-02T11:21:22.202Z,17.28
2017-07-02T11:23:49.603Z,17.26
2017-07-02T11:26:16.998Z,17.31
2017-07-02T11:28:44.395Z,17.30
2017-07-02T11:31:11.834Z,17.43
2017-07-02T11:33:39.219Z,17.44
2017-07-02T11:36:06.613Z,17.45
2017-07-02T11:38:34.020Z,17.47
2017-07-02T11:41:01.412Z,17.64
2017-07-02T11:43:28.795Z,17.75
2017-07-02T11:45:56.203Z,17.76
2017-07-02T11:48:23.596Z,17.87
2017-07-02T11:50:51.002Z,17.79
2017-07-02T11:53:18.395Z,17.88
2017-07-02T11:55:45.798Z,17.97
2017-07-02T11:58:13.218Z,17.98
2017-07-02T12:00:40.596Z,18.13
2017-07-02T12:03:07.997Z,18.26
2017-07-02T12:05:35.401Z,18.24
2017-07-02T12:08:02.791Z,18.22
2017-07-02T12:10:30.195Z,18.36
2017-07-02T12:12:57.594Z,18.53
2017-07-02T12:15:25.003Z,18.44
2017-07-02T12:17:52.399Z,18.47
2017-07-02T12:20:19.797Z,18.55
2017-07-02T12:22:48.176Z,18.63
2017-07-02T12:25:15.579Z,18.66
2017-07-02T12:27:43.287Z,18.69
2017-07-02T12:30:10.681Z,18.77
2017-07-02T12:32:38.083Z,18.81
2017-07-02T12:35:05.483Z,18.84
2017-07-02T12:37:32.870Z,18.92
2017-07-02T12:40:00.275Z,19.04
2017-07-02T12:42:27.695Z,19.08
2017-07-02T12:44:55.095Z,19.12
2017-07-02T12:47:22.483Z,19.14
2017-07-02T12:49:49.885Z,19.11
2017-07-02T12:52:17.275Z,19.36
2017-07-02T12:54:44.694Z,19.38
2017-07-02T12:57:12.089Z,19.31
2017-07-02T12:59:39.483Z,19.31
2017-07-02T13:02:07.095Z,19.49
2017-07-02T13:04:34.494Z,19.52
2017-07-02T13:07:01.890Z,19.54
2017-07-02T13:09:29.287Z,19.71
2017-07-02T13:11:56.683Z,19.85
2017-07-02T13:14:24.068Z,19.92
2017-07-02T13:16:51.458Z,19.88
2017-07-02T13:19:18.857Z,19.97
2017-07-02T13:21:46.253Z,20.04
2017-07-02T13:24:13.655Z,20.09
2017-07-02T13:26:41.067Z,20.03
2017-07-02T13:29:08.460Z,20.04
2017-07-02T13:31:35.851Z,19.93
2017-07-02T13:34:03.248Z,19.72
2017-07-02T13:36:30.943Z,19.55
2017-07-02T13:38:58.324Z,19.29
2017-07-02T13:41:25.954Z,19.31
2017-07-02T13:43:54.099Z,19.19
2017-07-02T13:46:21.507Z,19.05
2017-07-02T13:48:48.902Z,18.96
2017-07-02T13:51:16.305Z,19.08
2017-07-02T13:53:43.699Z,19.12
2017-07-02T13:56:11.103Z,19.17
2017-07-02T13:58:38.504Z,19.14
2017-07-02T14:01:05.905Z,19.20
2017-07-02T14:03:33.291Z,19.11
2017-07-02T14:06:00.688Z,19.17
2017-07-02T14:08:28.071Z,19.13
2017-07-02T14:10:55.478Z,19.19
2017-07-02T14:13:22.877Z,19.30
2017-07-02T14:15:50.268Z,19.40
2017-07-02T14:18:17.670Z,19.45
2017-07-02T14:20:45.215Z,19.57
2017-07-02T14:23:12.615Z,19.67
2017-07-02T14:25:40.011Z,19.75
2017-07-02T14:28:07.447Z,19.83
2017-07-02T14:30:34.835Z,19.67
2017-07-02T14:33:02.234Z,19.82
2017-07-02T14:35:29.624Z,19.99
2017-07-02T14:37:57.040Z,20.04
2017-07-02T14:40:24.431Z,20.03
2017-07-02T14:42:51.835Z,20.03
2017-07-02T14:45:19.223Z,20.06
2017-07-02T14:47:46.619Z,20.09
2017-07-02T14:50:14.010Z,20.15
2017-07-02T14:52:41.407Z,20.24
2017-07-02T14:55:08.817Z,20.28
2017-07-02T14:57:36.199Z,20.40
2017-07-02T15:00:03.595Z,20.25
2017-07-02T15:02:30.998Z,20.27
2017-07-02T15:04:58.386Z,20.28
2017-07-02T15:07:25.785Z,20.29
2017-07-02T15:09:53.171Z,20.39
2017-07-02T15:12:20.574Z,20.52
2017-07-02T15:14:48.009Z,20.51
2017-07-02T15:17:15.415Z,20.51
2017-07-02T15:19:42.811Z,20.38
2017-07-02T15:22:10.200Z,20.39
2017-07-02T15:24:37.627Z,20.35
2017-07-02T15:27:05.020Z,20.44
2017-07-02T15:29:32.411Z,20.49
2017-07-02T15:31:59.813Z,20.52
2017-07-02T15:34:27.208Z,20.52
2017-07-02T15:36:54.614Z,20.44
2017-07-02T15:39:22.011Z,20.31
2017-07-02T15:41:49.616Z,20.21
2017-07-02T15:44:17.015Z,20.08
2017-07-02T15:46:44.404Z,19.87
2017-07-02T15:49:11.815Z,19.75
2017-07-02T15:51:39.213Z,19.60
2017-07-02T15:54:06.619Z,19.48
2017-07-02T15:56:34.010Z,19.53
2017-07-02T15:59:01.410Z,19.45
2017-07-02T16:01:28.803Z,19.40
2017-07-02T16:03:56.207Z,19.31
2017-07-02T16:06:23.602Z,19.24
2017-07-02T16:08:51.019Z,19.23
2017-07-02T16:11:18.412Z,19.22
2017-07-02T16:13:45.808Z,19.20
2017-07-02T16:16:13.204Z,19.23
2017-07-02T16:18:40.596Z,19.26
2017-07-02T16:21:08.035Z,19.27
2017-07-02T16:23:35.438Z,19.41
2017-07-02T16:26:02.851Z,19.26
2017-07-02T16:28:30.251Z,19.33
2017-07-02T16:30:57.635Z,19.12
2017-07-02T16:33:25.023Z,19.13
2017-07-02T16:35:52.419Z,19.21
2017-07-02T16:38:19.819Z,19.19
2017-07-02T16:40:47.220Z,19.30
2017-07-02T16:43:14.614Z,19.27
2017-07-02T16:45:42.007Z,19.21
2017-07-02T16:48:09.403Z,19.30
2017-07-02T16:50:36.803Z,19.30
2017-07-02T16:53:04.211Z,19.25
2017-07-02T16:55:31.610Z,19.19
2017-07-02T16:57:59.002Z,19.18
2017-07-02T17:00:26.412Z,19.01
2017-07-02T17:02:53.800Z,18.97
2017-07-02T17:05:21.208Z,18.93
2017-07-02T17:07:48.604Z,19.08
2017-07-02T17:10:16.007Z,19.06
2017-07-02T17:12:43.399Z,19.09
2017-07-02T17:15:10.806Z,19.06
2017-07-02T17:17:38.195Z,18.98
2017-07-02T17:20:05.604Z,19.01
2017-07-02T17:22:32.993Z,18.98
2017-07-02T17:25:00.386Z,18.94
2017-07-02T17:27:27.785Z,19.03
2017-07-02T17:29:55.188Z,19.04
2017-07-02T17:32:22.890Z,18.78
2017-07-02T17:34:50.499Z,18.75
2017-07-02T17:37:18.116Z,18.68
2017-07-02T17:39:45.506Z,18.63
2017-07-02T17:42:12.906Z,18.54
2017-07-02T17:44:40.579Z,18.51
2017-07-02T17:47:08.002Z,18.47
2017-07-02T17:49:35.403Z,18.27
2017-07-02T17:52:02.803Z,18.25
2017-07-02T17:54:34.187Z,18.27
2017-07-02T17:57:01.643Z,18.23
2017-07-02T17:59:29.039Z,18.34
2017-07-02T18:01:56.450Z,18.39
2017-07-02T18:04:23.852Z,18.31
2017-07-02T18:06:51.244Z,18.36
2017-07-02T18:09:18.824Z,18.45
2017-07-02T18:11:46.695Z,18.37
2017-07-02T18:14:14.094Z,18.38
2017-07-02T18:16:41.871Z,18.49
2017-07-02T18:19:10.508Z,18.57
2017-07-02T18:21:50.079Z,18.51
2017-07-02T18:24:17.694Z,18.48
2017-07-02T18:26:45.090Z,18.39
2017-07-02T18:29:12.474Z,18.28
2017-07-02T18:31:39.887Z,18.18
2017-07-02T18:34:07.263Z,18.20
2017-07-02T18:36:34.659Z,18.13
2017-07-02T18:39:02.057Z,18.10
2017-07-02T18:41:29.502Z,17.95
2017-07-02T18:43:56.887Z,17.94
2017-07-02T18:46:24.286Z,18.05
2017-07-02T18:48:51.674Z,17.93
2017-07-02T18:51:19.071Z,17.84
2017-07-02T18:53:46.455Z,17.83
2017-07-02T18:56:13.847Z,17.85
2017-07-02T18:58:41.235Z,17.86
2017-07-02T19:01:08.639Z,17.80
2017-07-02T19:03:36.031Z,17.79
2017-07-02T19:06:03.460Z,17.83
2017-07-02T19:08:30.855Z,17.83
2017-07-02T19:10:58.276Z,17.86
2017-07-02T19:13:25.663Z,17.80
2017-07-02T19:15:53.074Z,17.81
2017-07-02T19:18:20.470Z,17.88
2017-07-02T19:20:47.870Z,17.87
2017-07-02T19:23:15.270Z,17.89
2017-07-02T19:25:42.663Z,17.94
2017-07-02T19:28:10.072Z,17.94
2017-07-02T19:30:37.471Z,18.02
2017-07-02T19:33:04.871Z,18.06
2017-07-02T19:35:32.283Z,18.02
2017-07-02T19:37:59.679Z,18.03
2017-07-02T19:40:27.117Z,17.84
2017-07-02T19:42:54.499Z,17.68
2017-07-02T19:45:21.891Z,17.63
2017-07-02T19:47:49.291Z,17.55
2017-07-02T19:50:16.683Z,17.45
2017-07-02T19:52:44.087Z,17.40
2017-07-02T19:55:11.475Z,17.43
2017-07-02T19:57:38.888Z,17.35
2017-07-02T20:00:06.277Z,17.28
2017-07-02T20:02:33.683Z,17.23
2017-07-02T20:05:01.101Z,17.21
2017-07-02T20:07:28.529Z,17.14
2017-07-02T20:09:55.923Z,17.09
2017-07-02T20:12:23.338Z,17.04
2017-07-02T20:14:50.734Z,16.91
2017-07-02T20:17:18.154Z,16.78
2017-07-02T20:19:45.556Z,16.62
2017-07-02T20:22:12.953Z,16.62
2017-07-02T20:24:40.351Z,16.60
2017-07-02T20:27:07.752Z,16.63
2017-07-02T20:29:35.148Z,16.61
2017-07-02T20:32:02.546Z,16.54
2017-07-02T20:34:29.938Z,16.51
2017-07-02T20:39:31.215Z,16.56
2017-07-02T20:41:58.619Z,16.58
2017-07-02T20:44:26.016Z,16.52
2017-07-02T20:46:53.416Z,16.58
2017-07-02T20:49:20.811Z,16.57
2017-07-02T20:51:48.203Z,16.56
2017-07-02T20:54:15.607Z,16.65
2017-07-02T20:56:42.995Z,16.70
2017-07-02T20:59:10.395Z,16.80
2017-07-02T21:01:37.784Z,16.87
2017-07-02T21:04:05.455Z,16.89
2017-07-02T21:06:32.875Z,17.05
2017-07-02T21:09:00.258Z,16.98
2017-07-02T21:11:27.659Z,17.00
2017-07-02T21:13:55.065Z,17.04
2017-07-02T21:16:22.454Z,17.14
2017-07-02T21:18:49.862Z,17.31
2017-07-02T21:21:17.251Z,17.40
2017-07-02T21:23:44.658Z,17.46
2017-07-02T21:26:12.043Z,17.52
2017-07-02T21:28:39.451Z,17.60
2017-07-02T21:31:06.841Z,17.64
2017-07-02T21:33:34.243Z,17.67
2017-07-02T21:36:01.636Z,17.58
2017-07-02T21:38:29.032Z,17.63
2017-07-02T21:40:56.437Z,17.67
2017-07-02T21:43:23.827Z,17.68
2017-07-02T21:45:51.235Z,17.79
2017-07-02T21:48:18.691Z,17.88
2017-07-02T21:50:46.087Z,17.81
2017-07-02T21:53:13.773Z,17.71
2017-07-02T21:55:41.178Z,17.84
2017-07-02T21:58:08.571Z,17.84
2017-07-02T22:00:35.975Z,17.84
2017-07-02T22:03:03.423Z,17.80
2017-07-02T22:05:30.827Z,17.78
2017-07-02T22:07:58.223Z,17.77
2017-07-02T22:10:25.625Z,17.63
2017-07-02T22:12:53.007Z,17.70
2017-07-02T22:15:20.415Z,17.76
2017-07-02T22:17:47.799Z,17.72
2017-07-02T22:20:15.198Z,17.76
2017-07-02T22:22:42.591Z,17.58
2017-07-02T22:25:09.987Z,17.56
2017-07-02T22:27:37.387Z,17.51
2017-07-02T22:30:04.780Z,17.49
2017-07-02T22:32:32.180Z,17.42
2017-07-02T22:34:59.575Z,17.53
2017-07-02T22:37:26.966Z,17.43
2017-07-02T22:39:54.363Z,17.47
2017-07-02T22:42:21.755Z,17.28
2017-07-02T22:44:49.155Z,17.23
2017-07-02T22:47:16.540Z,17.29
2017-07-02T22:49:43.980Z,17.30
2017-07-02T22:52:11.371Z,17.15
2017-07-02T22:54:38.764Z,17.29
2017-07-02T22:57:06.168Z,17.27
2017-07-02T22:59:33.555Z,17.34
2017-07-02T23:02:00.954Z,17.39
2017-07-02T23:04:28.338Z,17.39
2017-07-02T23:06:55.747Z,17.30
2017-07-02T23:09:23.141Z,17.16
2017-07-02T23:11:50.543Z,17.01
2017-07-02T23:14:17.974Z,17.16
2017-07-02T23:16:45.362Z,17.16
2017-07-02T23:19:12.761Z,17.17
2017-07-02T23:21:40.168Z,17.18
2017-07-02T23:24:07.561Z,17.17
2017-07-02T23:26:34.959Z,16.99
2017-07-02T23:29:02.361Z,16.95
2017-07-02T23:31:29.776Z,16.88
2017-07-02T23:33:57.169Z,16.85
2017-07-02T23:36:24.567Z,16.88
2017-07-02T23:38:51.958Z,16.80
2017-07-02T23:41:19.371Z,16.90
2017-07-02T23:43:46.776Z,16.88
2017-07-02T23:46:14.419Z,16.85
2017-07-02T23:48:42.083Z,16.80
2017-07-02T23:51:09.508Z,16.78
2017-07-02T23:53:36.900Z,16.67
2017-07-02T23:56:04.547Z,16.61
2017-07-02T23:58:31.951Z,16.66
